createdAt,value
2018-07-07T00:00:13.145Z,2.00
2018-07-07T00:01:16.728Z,1.98
2018-07-07T00:02:20.440Z,2.35
2018-07-07T00:03:24.009Z,2.25
2018-07-07T00:04:27.522Z,1.90
2018-07-07T00:05:31.219Z,2.12
2018-07-07T00:06:34.859Z,2.00
2018-07-07T00:07:39.705Z,2.05
2018-07-07T00:08:43.335Z,2.10
2018-07-07T00:09:46.962Z,2.70
2018-07-07T00:10:57.053Z,2.20
2018-07-07T00:12:00.688Z,3.08
2018-07-07T00:13:04.333Z,2.00
2018-07-07T00:14:08.069Z,2.45
2018-07-07T00:15:17.355Z,2.50
2018-07-07T00:16:21.025Z,2.22
2018-07-07T00:17:24.799Z,2.95
2018-07-07T00:18:28.493Z,2.85
2018-07-07T00:19:31.813Z,2.25
2018-07-07T00:20:35.617Z,2.15
2018-07-07T00:21:39.228Z,2.60
2018-07-07T00:22:42.981Z,2.75
2018-07-07T00:23:46.267Z,2.45
2018-07-07T00:24:49.516Z,2.37
2018-07-07T00:25:53.196Z,2.40
2018-07-07T00:26:56.867Z,2.35
2018-07-07T00:28:00.513Z,2.30
2018-07-07T00:29:04.206Z,2.95
2018-07-07T00:30:08.205Z,2.40
2018-07-07T00:31:11.894Z,2.70
2018-07-07T00:32:15.587Z,2.67
2018-07-07T00:33:19.255Z,2.50
2018-07-07T00:34:22.933Z,2.70
2018-07-07T00:35:26.572Z,2.30
2018-07-07T00:36:30.145Z,2.45
2018-07-07T00:37:33.832Z,2.20
2018-07-07T00:38:37.498Z,2.67
2018-07-07T00:39:41.162Z,2.40
2018-07-07T00:40:44.408Z,1.82
2018-07-07T00:41:48.004Z,1.77
2018-07-07T00:42:51.737Z,2.02
2018-07-07T00:43:55.428Z,2.20
2018-07-07T00:44:59.028Z,2.20
2018-07-07T00:46:02.617Z,1.60
2018-07-07T00:47:06.326Z,1.98
2018-07-07T00:48:10.133Z,1.80
2018-07-07T00:49:13.727Z,1.98
2018-07-07T00:50:17.383Z,2.02
2018-07-07T00:51:21.053Z,1.98
2018-07-07T00:52:24.700Z,2.17
2018-07-07T00:53:28.399Z,1.95
2018-07-07T00:54:32.067Z,1.80
2018-07-07T00:55:35.652Z,2.05
2018-07-07T00:56:39.388Z,1.70
2018-07-07T00:57:43.001Z,1.57
2018-07-07T00:58:46.628Z,1.90
2018-07-07T00:59:50.455Z,1.57
2018-07-07T01:00:54.192Z,1.70
2018-07-07T01:01:57.867Z,1.90
2018-07-07T01:03:01.510Z,2.08
2018-07-07T01:04:05.138Z,1.87
2018-07-07T01:05:18.730Z,1.42
2018-07-07T01:06:26.885Z,1.60
2018-07-07T01:07:30.484Z,1.65
2018-07-07T01:08:33.864Z,2.30
2018-07-07T01:09:37.490Z,2.30
2018-07-07T01:10:41.140Z,2.50
2018-07-07T01:11:44.796Z,2.15
2018-07-07T01:12:48.408Z,2.05
2018-07-07T01:13:52.074Z,2.20
2018-07-07T01:14:55.733Z,2.35
2018-07-07T01:15:59.349Z,2.02
2018-07-07T01:17:02.986Z,2.22
2018-07-07T01:18:06.772Z,1.70
2018-07-07T01:19:10.457Z,1.65
2018-07-07T01:20:14.168Z,2.65
2018-07-07T01:21:17.846Z,2.20
2018-07-07T01:22:21.494Z,1.92
2018-07-07T01:23:25.102Z,2.22
2018-07-07T01:24:28.789Z,2.00
2018-07-07T01:25:32.486Z,1.80
2018-07-07T01:26:36.125Z,1.85
2018-07-07T01:27:39.777Z,1.87
2018-07-07T01:28:43.433Z,1.70
2018-07-07T01:29:46.745Z,1.60
2018-07-07T01:30:50.433Z,1.62
2018-07-07T01:31:54.075Z,1.55
2018-07-07T01:32:57.727Z,1.82
2018-07-07T01:34:01.396Z,1.87
2018-07-07T01:35:05.061Z,1.85
2018-07-07T01:36:08.797Z,1.40
2018-07-07T01:37:12.474Z,1.72
2018-07-07T01:38:16.240Z,1.92
2018-07-07T01:39:19.839Z,1.67
2018-07-07T01:40:23.523Z,1.92
2018-07-07T01:41:26.812Z,1.50
2018-07-07T01:42:30.109Z,1.92
2018-07-07T01:43:33.420Z,1.70
2018-07-07T01:44:36.692Z,1.62
2018-07-07T01:45:40.030Z,1.98
2018-07-07T01:46:43.308Z,1.95
2018-07-07T01:47:46.624Z,2.22
2018-07-07T01:49:59.548Z,2.17
2018-07-07T01:51:02.881Z,1.80
2018-07-07T01:52:06.185Z,2.08
2018-07-07T01:53:09.650Z,1.98
2018-07-07T01:54:13.005Z,1.82
2018-07-07T01:55:16.279Z,1.45
2018-07-07T01:56:19.605Z,1.90
2018-07-07T01:57:22.896Z,1.65
2018-07-07T01:58:26.181Z,1.80
2018-07-07T01:59:29.493Z,1.37
2018-07-07T02:00:33.018Z,1.90
2018-07-07T02:01:36.270Z,1.82
2018-07-07T02:02:39.577Z,1.47
2018-07-07T02:03:42.917Z,1.82
2018-07-07T02:04:46.333Z,2.00
2018-07-07T02:05:49.672Z,1.60
2018-07-07T02:06:52.967Z,1.60
2018-07-07T02:07:56.280Z,2.80
2018-07-07T02:08:59.578Z,2.65
2018-07-07T02:10:02.850Z,3.22
2018-07-07T02:11:06.150Z,3.25
2018-07-07T02:12:09.442Z,2.58
2018-07-07T02:13:12.763Z,2.98
2018-07-07T02:14:16.322Z,3.80
2018-07-07T02:15:19.647Z,3.10
2018-07-07T02:16:22.931Z,2.30
2018-07-07T02:17:26.241Z,2.80
2018-07-07T02:18:29.500Z,2.87
2018-07-07T02:19:32.797Z,2.90
2018-07-07T02:20:36.160Z,2.70
2018-07-07T02:21:39.487Z,2.75
2018-07-07T02:22:42.748Z,2.98
2018-07-07T02:23:46.027Z,2.50
2018-07-07T02:24:50.177Z,3.05
2018-07-07T02:25:53.501Z,2.22
2018-07-07T02:26:56.767Z,2.70
2018-07-07T02:27:59.991Z,2.98
2018-07-07T02:29:03.279Z,1.98
2018-07-07T02:30:06.596Z,2.60
2018-07-07T02:31:09.927Z,2.17
2018-07-07T02:32:13.387Z,3.65
2018-07-07T02:33:16.698Z,2.65
2018-07-07T02:34:20.001Z,2.05
2018-07-07T02:35:23.303Z,2.70
2018-07-07T02:36:26.629Z,2.00
2018-07-07T02:37:29.927Z,2.12
2018-07-07T02:38:33.224Z,2.35
2018-07-07T02:39:36.539Z,2.12
2018-07-07T02:40:39.841Z,2.67
2018-07-07T02:41:43.170Z,2.55
2018-07-07T02:42:46.453Z,2.83
2018-07-07T02:43:50.068Z,2.20
2018-07-07T02:44:53.351Z,2.10
2018-07-07T02:45:56.684Z,1.77
2018-07-07T02:46:59.983Z,2.22
2018-07-07T02:48:03.352Z,2.00
2018-07-07T02:49:06.714Z,2.08
2018-07-07T02:50:10.038Z,1.67
2018-07-07T02:51:13.309Z,1.70
2018-07-07T02:52:16.581Z,1.95
2018-07-07T02:53:19.892Z,1.90
2018-07-07T02:54:23.219Z,1.87
2018-07-07T02:55:26.523Z,2.15
2018-07-07T02:56:29.814Z,1.70
2018-07-07T02:57:33.075Z,1.62
2018-07-07T02:58:36.389Z,2.30
2018-07-07T02:59:39.651Z,2.27
2018-07-07T03:00:42.942Z,2.00
2018-07-07T03:01:46.216Z,1.55
2018-07-07T03:02:49.476Z,1.85
2018-07-07T03:03:52.809Z,1.82
2018-07-07T03:04:56.077Z,2.02
2018-07-07T03:05:59.400Z,1.87
2018-07-07T03:07:02.680Z,2.40
2018-07-07T03:08:05.999Z,1.90
2018-07-07T03:09:09.299Z,1.70
2018-07-07T03:10:12.573Z,1.80
2018-07-07T03:11:15.839Z,2.15
2018-07-07T03:12:19.128Z,2.25
2018-07-07T03:13:22.406Z,2.85
2018-07-07T03:14:25.741Z,2.42
2018-07-07T03:15:29.012Z,2.27
2018-07-07T03:16:32.288Z,2.22
2018-07-07T03:17:36.958Z,2.00
2018-07-07T03:18:40.222Z,2.20
2018-07-07T03:19:43.519Z,1.80
2018-07-07T03:20:46.926Z,3.00
2018-07-07T03:21:50.326Z,2.08
2018-07-07T03:22:53.757Z,2.60
2018-07-07T03:23:57.064Z,2.02
2018-07-07T03:25:00.363Z,2.40
2018-07-07T03:26:03.670Z,2.05
2018-07-07T03:27:06.999Z,2.30
2018-07-07T03:28:10.284Z,2.65
2018-07-07T03:29:13.530Z,2.50
2018-07-07T03:30:16.826Z,2.35
2018-07-07T03:31:20.133Z,3.10
2018-07-07T03:32:23.456Z,2.80
2018-07-07T03:33:26.757Z,2.25
2018-07-07T03:34:30.009Z,2.33
2018-07-07T03:35:33.314Z,2.20
2018-07-07T03:36:36.544Z,2.30
2018-07-07T03:37:39.834Z,2.12
2018-07-07T03:38:43.111Z,2.65
2018-07-07T03:39:46.403Z,2.45
2018-07-07T03:40:49.696Z,2.25
2018-07-07T03:41:52.931Z,2.60
2018-07-07T03:42:56.225Z,2.20
2018-07-07T03:43:59.518Z,2.50
2018-07-07T03:45:02.787Z,2.60
2018-07-07T03:46:06.083Z,2.10
2018-07-07T03:47:09.352Z,2.20
2018-07-07T03:48:12.641Z,2.12
2018-07-07T03:49:15.967Z,2.40
2018-07-07T03:50:19.186Z,2.40
2018-07-07T03:51:22.648Z,2.22
2018-07-07T03:52:32.378Z,2.50
2018-07-07T03:53:35.650Z,3.00
2018-07-07T03:54:39.024Z,2.30
2018-07-07T03:55:42.345Z,2.50
2018-07-07T03:56:45.665Z,2.02
2018-07-07T03:57:48.938Z,2.10
2018-07-07T03:58:52.479Z,2.10
2018-07-07T03:59:55.707Z,2.75
2018-07-07T04:00:58.987Z,2.15
2018-07-07T04:02:02.288Z,2.52
2018-07-07T04:03:05.594Z,2.27
2018-07-07T04:04:08.931Z,2.70
2018-07-07T04:05:12.209Z,2.58
2018-07-07T04:06:15.479Z,2.40
2018-07-07T04:07:18.762Z,2.33
2018-07-07T04:08:22.152Z,2.27
2018-07-07T04:09:25.449Z,2.80
2018-07-07T04:10:28.728Z,2.33
2018-07-07T04:11:32.033Z,1.72
2018-07-07T04:12:35.330Z,2.75
2018-07-07T04:13:38.632Z,3.00
2018-07-07T04:14:42.041Z,2.37
2018-07-07T04:15:45.300Z,1.75
2018-07-07T04:16:48.580Z,2.50
2018-07-07T04:17:51.886Z,2.05
2018-07-07T04:18:55.179Z,2.70
2018-07-07T04:19:58.482Z,2.47
2018-07-07T04:21:02.732Z,2.10
2018-07-07T04:22:06.154Z,3.00
2018-07-07T04:23:09.492Z,2.30
2018-07-07T04:24:12.869Z,2.77
2018-07-07T04:25:16.171Z,2.20
2018-07-07T04:26:19.458Z,2.65
2018-07-07T04:27:22.749Z,2.58
2018-07-07T04:28:26.144Z,2.22
2018-07-07T04:29:29.414Z,3.47
2018-07-07T04:30:32.698Z,2.77
2018-07-07T04:31:35.972Z,2.80
2018-07-07T04:32:39.274Z,2.60
2018-07-07T04:33:42.607Z,2.90
2018-07-07T04:34:45.892Z,2.25
2018-07-07T04:35:49.865Z,3.02
2018-07-07T04:36:53.124Z,2.20
2018-07-07T04:37:56.367Z,1.90
2018-07-07T04:38:59.728Z,2.47
2018-07-07T04:40:03.039Z,2.50
2018-07-07T04:41:06.389Z,2.60
2018-07-07T04:42:09.663Z,2.75
2018-07-07T04:43:12.942Z,3.05
2018-07-07T04:44:16.270Z,2.20
2018-07-07T04:45:19.546Z,2.40
2018-07-07T04:46:22.852Z,2.80
2018-07-07T04:47:26.132Z,2.20
2018-07-07T04:48:29.434Z,2.50
2018-07-07T04:49:32.728Z,2.30
2018-07-07T04:50:36.049Z,2.33
2018-07-07T04:51:39.321Z,2.30
2018-07-07T04:52:42.553Z,2.65
2018-07-07T04:53:45.864Z,2.33
2018-07-07T04:54:49.185Z,2.55
2018-07-07T04:55:52.471Z,2.60
2018-07-07T04:56:55.767Z,3.33
2018-07-07T04:57:59.057Z,2.08
2018-07-07T04:59:02.356Z,2.10
2018-07-07T05:00:05.689Z,2.60
2018-07-07T05:01:08.985Z,2.17
2018-07-07T05:02:12.274Z,2.30
2018-07-07T05:03:15.544Z,3.10
2018-07-07T05:04:18.805Z,2.55
2018-07-07T05:05:22.120Z,2.47
2018-07-07T05:06:25.498Z,2.25
2018-07-07T05:07:28.802Z,3.02
2018-07-07T05:08:32.117Z,1.90
2018-07-07T05:09:35.380Z,2.60
2018-07-07T05:10:38.703Z,2.12
2018-07-07T05:11:41.992Z,2.80
2018-07-07T05:12:45.334Z,2.75
2018-07-07T05:13:48.644Z,2.92
2018-07-07T05:14:52.156Z,2.25
2018-07-07T05:15:55.449Z,2.45
2018-07-07T05:16:58.812Z,2.45
2018-07-07T05:18:02.073Z,3.10
2018-07-07T05:19:05.464Z,2.37
2018-07-07T05:20:08.757Z,2.33
2018-07-07T05:21:12.095Z,2.75
2018-07-07T05:22:15.397Z,2.75
2018-07-07T05:23:18.768Z,2.37
2018-07-07T05:24:22.159Z,2.27
2018-07-07T05:25:25.475Z,2.25
2018-07-07T05:26:28.750Z,2.17
2018-07-07T05:27:32.280Z,2.85
2018-07-07T05:28:35.749Z,2.35
2018-07-07T05:29:39.099Z,2.35
2018-07-07T05:30:42.392Z,2.67
2018-07-07T05:31:45.679Z,2.02
2018-07-07T05:32:49.075Z,2.40
2018-07-07T05:33:52.361Z,2.50
2018-07-07T05:34:55.665Z,1.90
2018-07-07T05:35:58.980Z,2.45
2018-07-07T05:37:02.321Z,2.05
2018-07-07T05:38:05.629Z,1.85
2018-07-07T05:39:08.939Z,2.37
2018-07-07T05:40:12.244Z,1.80
2018-07-07T05:41:15.598Z,2.15
2018-07-07T05:42:19.122Z,1.62
2018-07-07T05:43:22.472Z,2.27
2018-07-07T05:44:25.833Z,2.33
2018-07-07T05:45:29.154Z,2.37
2018-07-07T05:46:32.651Z,2.52
2018-07-07T05:47:35.952Z,2.05
2018-07-07T05:48:39.336Z,2.40
2018-07-07T05:49:42.664Z,2.33
2018-07-07T05:50:45.917Z,2.02
2018-07-07T05:51:49.205Z,1.98
2018-07-07T05:52:52.593Z,2.40
2018-07-07T05:53:56.005Z,1.85
2018-07-07T05:54:59.342Z,2.85
2018-07-07T05:56:02.641Z,2.67
2018-07-07T05:57:05.948Z,2.65
2018-07-07T05:58:09.279Z,2.45
2018-07-07T05:59:12.623Z,2.12
2018-07-07T06:00:16.343Z,1.92
2018-07-07T06:01:19.629Z,2.50
2018-07-07T06:02:22.971Z,3.25
2018-07-07T06:03:26.296Z,2.30
2018-07-07T06:04:29.557Z,2.33
2018-07-07T06:05:32.850Z,1.92
2018-07-07T06:06:36.199Z,2.25
2018-07-07T06:07:39.696Z,2.67
2018-07-07T06:08:43.066Z,2.10
2018-07-07T06:09:46.333Z,2.15
2018-07-07T06:10:49.615Z,2.50
2018-07-07T06:11:52.986Z,2.35
2018-07-07T06:12:56.558Z,2.42
2018-07-07T06:13:59.829Z,2.10
2018-07-07T06:15:03.180Z,1.98
2018-07-07T06:16:06.514Z,2.10
2018-07-07T06:17:09.836Z,2.98
2018-07-07T06:18:13.240Z,1.77
2018-07-07T06:19:16.482Z,2.27
2018-07-07T06:20:19.751Z,2.67
2018-07-07T06:21:23.072Z,2.75
2018-07-07T06:22:26.358Z,3.15
2018-07-07T06:23:29.690Z,2.35
2018-07-07T06:24:32.980Z,2.50
2018-07-07T06:25:36.250Z,2.25
2018-07-07T06:26:39.620Z,2.55
2018-07-07T06:27:42.929Z,2.60
2018-07-07T06:28:46.326Z,2.40
2018-07-07T06:29:49.624Z,2.35
2018-07-07T06:30:52.975Z,2.52
2018-07-07T06:31:56.270Z,2.40
2018-07-07T06:32:59.511Z,4.17
2018-07-07T06:34:02.813Z,2.40
2018-07-07T06:35:06.165Z,2.70
2018-07-07T06:36:09.445Z,2.45
2018-07-07T06:37:12.762Z,2.70
2018-07-07T06:38:16.028Z,2.50
2018-07-07T06:40:28.994Z,4.25
2018-07-07T06:41:32.251Z,2.98
2018-07-07T06:42:35.518Z,2.80
2018-07-07T06:43:38.819Z,3.27
2018-07-07T06:44:42.187Z,3.12
2018-07-07T06:45:45.483Z,2.85
2018-07-07T06:46:48.863Z,2.75
2018-07-07T06:47:52.139Z,2.50
2018-07-07T06:48:55.666Z,2.58
2018-07-07T06:49:58.973Z,3.05
2018-07-07T06:51:02.243Z,2.72
2018-07-07T06:52:05.550Z,2.83
2018-07-07T06:53:08.848Z,2.50
2018-07-07T06:54:12.378Z,3.10
2018-07-07T06:55:15.734Z,3.20
2018-07-07T06:56:18.986Z,3.10
2018-07-07T06:57:22.251Z,3.72
2018-07-07T06:58:25.699Z,3.10
2018-07-07T06:59:28.993Z,2.52
2018-07-07T07:00:32.309Z,3.20
2018-07-07T07:01:35.579Z,2.90
2018-07-07T07:02:38.886Z,4.05
2018-07-07T07:03:42.232Z,3.30
2018-07-07T07:04:45.551Z,4.67
2018-07-07T07:05:48.869Z,2.80
2018-07-07T07:06:52.173Z,3.65
2018-07-07T07:07:55.424Z,3.08
2018-07-07T07:08:59.156Z,2.70
2018-07-07T07:10:02.513Z,2.85
2018-07-07T07:11:05.876Z,3.50
2018-07-07T07:12:09.147Z,3.50
2018-07-07T07:13:12.491Z,3.40
2018-07-07T07:14:15.741Z,2.85
2018-07-07T07:15:19.024Z,3.45
2018-07-07T07:16:22.369Z,2.55
2018-07-07T07:17:25.732Z,4.12
2018-07-07T07:18:29.098Z,3.25
2018-07-07T07:19:32.366Z,3.10
2018-07-07T07:20:35.661Z,3.30
2018-07-07T07:21:38.955Z,3.22
2018-07-07T07:22:42.252Z,3.20
2018-07-07T07:23:45.667Z,3.37
2018-07-07T07:24:48.950Z,2.85
2018-07-07T07:25:52.302Z,3.08
2018-07-07T07:26:55.563Z,3.20
2018-07-07T07:27:58.849Z,2.90
2018-07-07T07:29:02.450Z,2.98
2018-07-07T07:30:06.034Z,3.15
2018-07-07T07:31:10.370Z,3.55
2018-07-07T07:32:13.998Z,3.40
2018-07-07T07:33:17.718Z,2.70
2018-07-07T07:34:21.347Z,3.05
2018-07-07T07:35:24.961Z,3.00
2018-07-07T07:36:36.842Z,3.10
2018-07-07T07:37:40.478Z,3.30
2018-07-07T07:38:44.175Z,3.27
2018-07-07T07:39:47.817Z,3.17
2018-07-07T07:40:51.714Z,2.90
2018-07-07T07:41:55.350Z,2.77
2018-07-07T07:42:59.087Z,3.30
2018-07-07T07:44:03.000Z,2.80
2018-07-07T07:45:06.826Z,3.85
2018-07-07T07:46:10.476Z,3.50
2018-07-07T07:47:14.123Z,3.30
2018-07-07T07:48:17.751Z,3.35
2018-07-07T07:49:21.470Z,3.37
2018-07-07T07:50:25.188Z,3.15
2018-07-07T07:51:29.092Z,3.50
2018-07-07T07:52:32.683Z,3.37
2018-07-07T07:53:36.347Z,3.72
2018-07-07T07:54:40.045Z,2.77
2018-07-07T07:55:43.683Z,3.17
2018-07-07T07:56:47.332Z,4.40
2018-07-07T07:57:51.070Z,3.65
2018-07-07T07:58:54.902Z,3.30
2018-07-07T07:59:59.312Z,3.62
2018-07-07T08:01:03.025Z,3.00
2018-07-07T08:02:06.685Z,3.60
2018-07-07T08:03:10.315Z,3.50
2018-07-07T08:04:13.952Z,3.35
2018-07-07T08:05:17.594Z,2.70
2018-07-07T08:06:21.587Z,3.05
2018-07-07T08:07:25.296Z,3.50
2018-07-07T08:08:28.930Z,2.90
2018-07-07T08:09:32.188Z,3.08
2018-07-07T08:10:35.800Z,3.30
2018-07-07T08:11:39.484Z,3.25
2018-07-07T08:12:43.088Z,4.20
2018-07-07T08:13:46.815Z,3.80
2018-07-07T08:14:50.460Z,3.20
2018-07-07T08:15:54.126Z,3.33
2018-07-07T08:16:57.836Z,3.30
2018-07-07T08:18:01.458Z,3.30
2018-07-07T08:19:05.072Z,4.10
2018-07-07T08:20:08.704Z,3.37
2018-07-07T08:21:12.344Z,4.05
2018-07-07T08:22:16.274Z,2.70
2018-07-07T08:23:19.916Z,3.40
2018-07-07T08:24:23.530Z,3.15
2018-07-07T08:25:26.796Z,2.60
2018-07-07T08:26:30.481Z,3.25
2018-07-07T08:27:33.858Z,3.27
2018-07-07T08:28:37.580Z,3.15
2018-07-07T08:29:41.284Z,3.20
2018-07-07T08:30:44.631Z,2.77
2018-07-07T08:31:48.288Z,3.27
2018-07-07T08:32:51.904Z,2.70
2018-07-07T08:33:55.587Z,3.22
2018-07-07T08:34:59.411Z,2.98
2018-07-07T08:36:03.071Z,3.25
2018-07-07T08:37:06.870Z,2.90
2018-07-07T08:38:14.473Z,2.77
2018-07-07T08:39:18.066Z,2.70
2018-07-07T08:40:22.853Z,3.60
2018-07-07T08:41:26.512Z,4.50
2018-07-07T08:42:30.124Z,2.90
2018-07-07T08:43:33.750Z,3.12
2018-07-07T08:44:37.419Z,2.62
2018-07-07T08:45:41.547Z,3.58
2018-07-07T08:46:45.155Z,3.15
2018-07-07T08:47:48.772Z,3.45
2018-07-07T08:48:52.429Z,2.90
2018-07-07T08:49:56.122Z,2.70
2018-07-07T08:50:59.873Z,3.58
2018-07-07T08:52:03.544Z,2.92
2018-07-07T08:53:10.232Z,2.98
2018-07-07T08:54:17.919Z,2.50
2018-07-07T08:55:25.680Z,3.02
2018-07-07T08:56:33.170Z,2.60
2018-07-07T08:57:41.758Z,2.87
2018-07-07T08:58:49.047Z,2.50
2018-07-07T08:59:56.558Z,3.45
2018-07-07T09:01:04.245Z,2.90
2018-07-07T09:02:12.677Z,3.05
2018-07-07T09:03:20.129Z,3.20
2018-07-07T09:04:28.017Z,2.98
2018-07-07T09:05:35.913Z,2.60
2018-07-07T09:06:43.979Z,2.52
2018-07-07T09:07:52.092Z,3.30
2018-07-07T09:09:00.293Z,2.75
2018-07-07T09:10:07.979Z,2.45
2018-07-07T09:11:16.499Z,2.50
2018-07-07T09:12:24.460Z,2.67
2018-07-07T09:13:32.486Z,2.40
2018-07-07T09:14:40.140Z,2.87
2018-07-07T09:15:48.440Z,2.37
2018-07-07T09:16:56.205Z,2.33
2018-07-07T09:18:04.136Z,2.73
2018-07-07T09:19:12.656Z,2.80
2018-07-07T09:20:20.449Z,2.37
2018-07-07T09:21:29.170Z,2.83
2018-07-07T09:22:36.736Z,2.60
2018-07-07T09:23:44.731Z,3.30
2018-07-07T09:24:53.825Z,2.50
2018-07-07T09:26:01.717Z,2.47
2018-07-07T09:27:10.152Z,2.90
2018-07-07T09:28:18.126Z,2.80
2018-07-07T09:29:26.031Z,2.70
2018-07-07T09:30:34.631Z,3.00
2018-07-07T09:31:42.608Z,3.63
2018-07-07T09:32:50.202Z,3.03
2018-07-07T09:33:57.991Z,2.77
2018-07-07T09:35:05.667Z,2.63
2018-07-07T09:36:13.663Z,2.40
2018-07-07T09:37:21.959Z,3.40
2018-07-07T09:38:30.355Z,3.00
2018-07-07T09:39:38.180Z,3.00
2018-07-07T09:40:47.171Z,2.20
2018-07-07T09:41:54.760Z,3.13
2018-07-07T09:43:02.340Z,2.73
2018-07-07T09:44:10.558Z,3.20
2018-07-07T09:45:18.660Z,3.03
2018-07-07T09:46:27.356Z,2.80
2018-07-07T09:47:35.750Z,2.67
2018-07-07T09:48:44.058Z,2.70
2018-07-07T09:49:52.362Z,2.57
2018-07-07T09:51:00.679Z,2.70
2018-07-07T09:52:07.925Z,2.50
2018-07-07T09:53:15.436Z,3.13
2018-07-07T09:54:24.120Z,3.47
2018-07-07T09:55:32.453Z,3.63
2018-07-07T09:56:40.107Z,2.60
2018-07-07T09:57:48.519Z,2.90
2018-07-07T09:58:56.603Z,2.60
2018-07-07T10:00:04.831Z,2.70
2018-07-07T10:01:12.516Z,3.07
2018-07-07T10:02:19.678Z,2.60
2018-07-07T10:03:27.890Z,2.90
2018-07-07T10:04:35.459Z,2.57
2018-07-07T10:05:43.759Z,2.57
2018-07-07T10:06:50.547Z,2.70
2018-07-07T10:07:58.336Z,2.20
2018-07-07T10:09:06.113Z,2.67
2018-07-07T10:10:14.299Z,2.47
2018-07-07T10:11:22.294Z,2.60
2018-07-07T10:12:29.995Z,2.40
2018-07-07T10:13:38.268Z,2.50
2018-07-07T10:14:45.661Z,2.00
2018-07-07T10:15:53.973Z,2.23
2018-07-07T10:17:01.839Z,2.47
2018-07-07T10:18:09.734Z,2.30
2018-07-07T10:19:17.115Z,3.10
2018-07-07T10:20:24.809Z,2.43
2018-07-07T10:21:33.198Z,2.60
2018-07-07T10:22:41.426Z,2.60
2018-07-07T10:23:49.595Z,2.80
2018-07-07T10:24:59.333Z,2.80
2018-07-07T10:26:07.353Z,2.20
2018-07-07T10:27:15.742Z,3.33
2018-07-07T10:28:23.856Z,2.53
2018-07-07T10:29:32.431Z,2.10
2018-07-07T10:30:41.863Z,2.70
2018-07-07T10:31:49.784Z,2.27
2018-07-07T10:32:58.487Z,2.30
2018-07-07T10:34:06.493Z,2.77
2018-07-07T10:35:14.887Z,2.13
2018-07-07T10:36:23.478Z,2.90
2018-07-07T10:37:31.485Z,2.40
2018-07-07T10:38:39.905Z,2.10
2018-07-07T10:39:47.445Z,1.93
2018-07-07T10:40:56.290Z,2.23
2018-07-07T10:42:04.049Z,2.23
2018-07-07T10:43:12.682Z,2.10
2018-07-07T10:44:20.445Z,2.00
2018-07-07T10:45:29.081Z,2.27
2018-07-07T10:46:37.294Z,2.50
2018-07-07T10:47:45.068Z,3.23
2018-07-07T10:48:52.967Z,2.50
2018-07-07T10:50:00.551Z,2.30
2018-07-07T10:51:09.123Z,2.50
2018-07-07T10:52:17.015Z,2.30
2018-07-07T10:53:24.637Z,2.27
2018-07-07T10:54:33.046Z,1.83
2018-07-07T10:55:40.177Z,2.50
2018-07-07T10:56:48.612Z,2.30
2018-07-07T10:57:55.683Z,2.07
2018-07-07T10:59:04.671Z,1.93
2018-07-07T11:00:12.152Z,2.67
2018-07-07T11:01:16.067Z,2.37
2018-07-07T11:02:19.846Z,2.27
2018-07-07T11:03:23.696Z,2.50
2018-07-07T11:04:27.427Z,2.80
2018-07-07T11:05:31.099Z,2.80
2018-07-07T11:06:34.799Z,2.13
2018-07-07T11:07:38.468Z,2.50
2018-07-07T11:08:42.263Z,2.40
2018-07-07T11:09:45.913Z,2.73
2018-07-07T11:10:49.613Z,2.17
2018-07-07T11:11:53.369Z,2.83
2018-07-07T11:12:57.001Z,2.33
2018-07-07T11:14:00.597Z,2.60
2018-07-07T11:15:04.356Z,2.30
2018-07-07T11:16:08.105Z,2.43
2018-07-07T11:17:12.001Z,2.83
2018-07-07T11:18:15.695Z,2.30
2018-07-07T11:19:19.314Z,2.10
2018-07-07T11:20:22.921Z,2.60
2018-07-07T11:21:26.205Z,2.30
2018-07-07T11:22:29.900Z,2.03
2018-07-07T11:23:33.530Z,2.17
2018-07-07T11:24:37.188Z,2.03
2018-07-07T11:25:40.868Z,2.53
2018-07-07T11:26:44.575Z,2.33
2018-07-07T11:27:48.327Z,2.40
2018-07-07T11:28:52.253Z,2.53
2018-07-07T11:29:55.825Z,1.93
2018-07-07T11:30:59.442Z,2.20
2018-07-07T11:32:03.092Z,2.70
2018-07-07T11:33:06.773Z,2.00
2018-07-07T11:34:10.349Z,2.40
2018-07-07T11:35:13.961Z,2.60
2018-07-07T11:36:17.839Z,2.50
2018-07-07T11:37:21.498Z,2.13
2018-07-07T11:38:25.151Z,2.37
2018-07-07T11:39:28.862Z,2.03
2018-07-07T11:40:32.728Z,2.40
2018-07-07T11:41:36.803Z,2.50
2018-07-07T11:42:40.525Z,2.33
2018-07-07T11:43:44.172Z,2.47
2018-07-07T11:44:47.946Z,2.57
2018-07-07T11:45:51.630Z,2.03
2018-07-07T11:46:55.304Z,2.10
2018-07-07T11:47:59.004Z,2.30
2018-07-07T11:49:02.759Z,2.80
2018-07-07T11:50:06.155Z,2.30
2018-07-07T11:51:09.790Z,2.63
2018-07-07T11:52:13.416Z,2.50
2018-07-07T11:53:17.150Z,2.10
2018-07-07T11:54:20.792Z,2.67
2018-07-07T11:55:24.446Z,2.27
2018-07-07T11:56:28.174Z,2.60
2018-07-07T11:57:31.831Z,1.97
2018-07-07T11:58:40.225Z,2.53
2018-07-07T11:59:47.881Z,1.90
2018-07-07T12:00:55.466Z,2.10
2018-07-07T12:02:04.088Z,1.97
2018-07-07T12:03:12.809Z,2.17
2018-07-07T12:04:20.496Z,2.40
2018-07-07T12:05:28.988Z,2.40
2018-07-07T12:06:36.559Z,2.67
2018-07-07T12:07:44.068Z,2.10
2018-07-07T12:08:51.933Z,2.40
2018-07-07T12:09:59.425Z,2.40
2018-07-07T12:11:07.536Z,2.40
2018-07-07T12:12:14.888Z,2.37
2018-07-07T12:13:23.088Z,2.23
2018-07-07T12:14:31.084Z,2.20
2018-07-07T12:15:39.718Z,2.23
2018-07-07T12:16:47.402Z,2.30
2018-07-07T12:17:54.993Z,1.97
2018-07-07T12:19:03.363Z,2.27
2018-07-07T12:20:11.483Z,2.80
2018-07-07T12:21:19.464Z,2.60
2018-07-07T12:22:27.265Z,2.13
2018-07-07T12:23:36.771Z,2.03
2018-07-07T12:24:44.768Z,2.20
2018-07-07T12:25:52.582Z,2.20
2018-07-07T12:27:01.299Z,2.30
2018-07-07T12:28:10.182Z,2.57
2018-07-07T12:29:18.291Z,2.43
2018-07-07T12:30:26.611Z,2.13
2018-07-07T12:31:35.415Z,2.67
2018-07-07T12:32:43.905Z,2.80
2018-07-07T12:33:47.674Z,2.43
2018-07-07T12:34:51.277Z,2.40
2018-07-07T12:35:54.615Z,2.27
2018-07-07T12:36:58.318Z,2.30
2018-07-07T12:38:01.922Z,2.30
2018-07-07T12:39:06.591Z,2.23
2018-07-07T12:40:10.340Z,1.73
2018-07-07T12:41:14.200Z,2.30
2018-07-07T12:42:17.987Z,2.37
2018-07-07T12:43:21.743Z,1.80
2018-07-07T12:44:25.425Z,2.13
2018-07-07T12:45:28.767Z,2.10
2018-07-07T12:46:32.410Z,1.97
2018-07-07T12:47:36.069Z,1.77
2018-07-07T12:48:39.805Z,2.17
2018-07-07T12:49:43.440Z,2.07
2018-07-07T12:50:48.024Z,2.20
2018-07-07T12:51:51.651Z,2.20
2018-07-07T12:52:55.420Z,2.10
2018-07-07T12:54:03.320Z,2.20
2018-07-07T12:55:11.623Z,2.40
2018-07-07T12:56:19.096Z,2.23
2018-07-07T12:57:27.608Z,2.33
2018-07-07T12:58:35.192Z,2.33
2018-07-07T12:59:43.385Z,2.13
2018-07-07T13:00:51.203Z,2.20
2018-07-07T13:01:59.037Z,2.37
2018-07-07T13:03:06.532Z,1.83
2018-07-07T13:04:13.939Z,2.10
2018-07-07T13:05:21.906Z,2.50
2018-07-07T13:06:29.796Z,2.03
2018-07-07T13:07:37.196Z,2.10
2018-07-07T13:08:45.469Z,2.10
2018-07-07T13:09:52.639Z,2.00
2018-07-07T13:11:00.150Z,2.23
2018-07-07T13:12:09.036Z,2.23
2018-07-07T13:13:16.450Z,2.20
2018-07-07T13:14:24.204Z,2.27
2018-07-07T13:15:32.636Z,2.40
2018-07-07T13:16:40.731Z,2.23
2018-07-07T13:17:48.931Z,2.40
2018-07-07T13:18:57.217Z,3.10
2018-07-07T13:20:05.017Z,5.67
2018-07-07T13:21:12.374Z,4.33
2018-07-07T13:22:20.687Z,4.67
2018-07-07T13:23:28.081Z,5.23
2018-07-07T13:24:36.046Z,2.57
2018-07-07T13:25:43.529Z,2.50
2018-07-07T13:26:51.726Z,2.77
2018-07-07T13:27:59.544Z,2.00
2018-07-07T13:29:06.724Z,2.20
2018-07-07T13:30:13.891Z,2.93
2018-07-07T13:31:21.072Z,4.10
2018-07-07T13:32:28.418Z,3.10
2018-07-07T13:33:38.254Z,3.70
2018-07-07T13:34:45.226Z,3.63
2018-07-07T13:35:52.603Z,3.30
2018-07-07T13:37:00.394Z,5.57
2018-07-07T13:38:07.364Z,3.60
2018-07-07T13:39:15.491Z,4.60
2018-07-07T13:40:23.247Z,5.50
2018-07-07T13:41:31.034Z,4.10
2018-07-07T13:42:38.620Z,2.73
2018-07-07T13:43:46.331Z,2.07
2018-07-07T13:44:54.722Z,1.77
2018-07-07T13:46:02.808Z,1.93
2018-07-07T13:47:10.900Z,2.17
2018-07-07T13:48:18.484Z,2.00
2018-07-07T13:49:26.492Z,3.03
2018-07-07T13:50:34.589Z,5.70
2018-07-07T13:51:41.761Z,7.10
2018-07-07T13:52:49.684Z,4.53
2018-07-07T13:53:57.342Z,2.53
2018-07-07T13:55:04.603Z,2.43
2018-07-07T13:56:11.892Z,1.67
2018-07-07T13:57:20.931Z,2.20
2018-07-07T13:58:29.021Z,2.20
2018-07-07T13:59:36.066Z,1.67
2018-07-07T14:00:43.355Z,2.40
2018-07-07T14:01:51.029Z,2.50
2018-07-07T14:02:58.558Z,2.27
2018-07-07T14:04:06.329Z,2.43
2018-07-07T14:05:13.627Z,2.13
2018-07-07T14:06:21.292Z,2.60
2018-07-07T14:07:29.055Z,2.57
2018-07-07T14:08:36.970Z,3.00
2018-07-07T14:09:44.763Z,3.20
2018-07-07T14:10:53.242Z,4.23
2018-07-07T14:12:01.053Z,3.00
2018-07-07T14:13:08.845Z,2.83
2018-07-07T14:14:16.194Z,2.03
2018-07-07T14:15:24.424Z,2.60
2018-07-07T14:16:32.414Z,2.50
2018-07-07T14:17:40.793Z,3.37
2018-07-07T14:18:49.009Z,3.10
2018-07-07T14:19:57.140Z,2.50
2018-07-07T14:21:05.081Z,2.00
2018-07-07T14:22:14.020Z,2.00
2018-07-07T14:23:22.221Z,2.23
2018-07-07T14:24:30.418Z,5.70